createdAt,value
2023-02-11T00:01:45.669Z,102545.72
2023-02-11T00:04:15.340Z,102532.13
2023-02-11T00:06:43.369Z,102527.09
2023-02-11T00:09:12.092Z,102519.19
2023-02-11T00:11:39.970Z,102519.31
2023-02-11T00:14:08.936Z,102531.53
2023-02-11T00:16:38.274Z,102538.72
2023-02-11T00:19:06.734Z,102547.66
2023-02-11T00:21:36.492Z,102537.50
2023-02-11T00:24:04.969Z,102531.47
2023-02-11T00:26:34.623Z,102531.38
2023-02-11T00:29:03.083Z,102546.66
2023-02-11T00:31:33.480Z,102542.81
2023-02-11T00:34:01.708Z,102533.59
2023-02-11T00:36:31.405Z,102538.47
2023-02-11T00:39:01.133Z,102516.53
2023-02-11T00:41:29.681Z,102538.50
2023-02-11T00:44:00.460Z,102540.97
2023-02-11T00:46:28.526Z,102535.75
2023-02-11T00:48:57.979Z,102552.91
2023-02-11T00:51:26.574Z,102541.97
2023-02-11T00:53:54.782Z,102555.66
2023-02-11T00:56:26.337Z,102562.13
2023-02-11T00:58:54.608Z,102562.38
2023-02-11T01:01:22.953Z,102560.84
2023-02-11T01:03:51.913Z,102561.72
2023-02-11T01:06:20.538Z,102553.94
2023-02-11T01:08:51.406Z,102553.06
2023-02-11T01:11:27.365Z,102542.25
2023-02-11T01:13:57.295Z,102548.41
2023-02-11T01:16:25.520Z,102527.25
2023-02-11T01:18:55.190Z,102529.78
2023-02-11T01:21:23.656Z,102535.69
2023-02-11T01:23:52.933Z,102522.47
2023-02-11T01:26:21.717Z,102528.13
2023-02-11T01:28:51.631Z,102512.47
2023-02-11T01:31:22.134Z,102499.91
2023-02-11T01:33:50.644Z,102502.31
2023-02-11T01:36:18.834Z,102489.88
2023-02-11T01:38:47.374Z,102489.94
2023-02-11T01:41:19.329Z,102489.91
2023-02-11T01:43:50.828Z,102489.13
2023-02-11T01:46:35.226Z,102465.97
2023-02-11T01:49:09.474Z,102449.25
2023-02-11T01:51:44.278Z,102432.19
2023-02-11T01:54:40.485Z,102422.59
2023-02-11T01:57:26.508Z,102401.16
2023-02-11T02:00:08.350Z,102393.88
2023-02-11T02:02:52.873Z,102390.88
2023-02-11T02:05:28.343Z,102394.13
2023-02-11T02:08:07.767Z,102390.66
2023-02-11T02:10:38.684Z,102394.22
2023-02-11T02:13:07.067Z,102400.56
2023-02-11T02:15:36.991Z,102407.63
2023-02-11T02:18:24.703Z,102407.56
2023-02-11T02:21:31.038Z,102407.09
2023-02-11T02:24:36.092Z,102407.78
2023-02-11T02:27:26.894Z,102400.63
2023-02-11T02:30:35.500Z,102399.72
2023-02-11T02:33:23.094Z,102396.16
2023-02-11T02:35:59.809Z,102394.53
2023-02-11T02:38:36.501Z,102410.44
2023-02-11T02:41:08.892Z,102406.81
2023-02-11T02:43:42.207Z,102394.75
2023-02-11T02:46:16.855Z,102386.00
2023-02-11T02:48:51.075Z,102369.09
2023-02-11T02:51:37.076Z,102369.03
2023-02-11T02:54:37.727Z,102376.97
2023-02-11T02:57:16.518Z,102368.19
2023-02-11T02:59:59.189Z,102370.88
2023-02-11T03:02:33.204Z,102364.63
2023-02-11T03:05:08.066Z,102373.28
2023-02-11T03:07:42.038Z,102379.03
2023-02-11T03:10:15.553Z,102372.97
2023-02-11T03:12:47.295Z,102372.94
2023-02-11T03:15:17.419Z,102362.56
2023-02-11T03:17:49.284Z,102359.78
2023-02-11T03:20:21.478Z,102365.06
2023-02-11T03:22:55.762Z,102355.13
2023-02-11T03:25:30.510Z,102352.50
2023-02-11T03:28:04.867Z,102343.41
2023-02-11T03:30:39.659Z,102337.41
2023-02-11T03:33:14.899Z,102334.81
2023-02-11T03:35:52.089Z,102340.22
2023-02-11T03:38:24.650Z,102339.44
2023-02-11T03:40:55.546Z,102331.44
2023-02-11T03:43:29.921Z,102339.41
2023-02-11T03:45:59.964Z,102331.16
2023-02-11T03:48:33.525Z,102350.09
2023-02-11T03:51:08.515Z,102353.66
2023-02-11T03:53:40.069Z,102343.91
2023-02-11T03:56:12.654Z,102347.63
2023-02-11T03:58:41.656Z,102352.06
2023-02-11T04:01:10.281Z,102349.22
2023-02-11T04:03:38.817Z,102344.63
2023-02-11T04:06:08.882Z,102334.09
2023-02-11T04:08:36.802Z,102339.41
2023-02-11T04:11:04.850Z,102346.59
2023-02-11T04:13:33.303Z,102355.25
2023-02-11T04:16:01.529Z,102356.31
2023-02-11T04:18:29.607Z,102358.22
2023-02-11T04:20:57.738Z,102345.66
2023-02-11T04:23:27.526Z,102351.94
2023-02-11T04:25:55.891Z,102346.69
2023-02-11T04:28:26.799Z,102349.16
2023-02-11T04:30:54.980Z,102349.19
2023-02-11T04:33:27.364Z,102347.34
2023-02-11T04:35:59.520Z,102338.66
2023-02-11T04:38:31.584Z,102348.41
2023-02-11T04:41:02.815Z,102344.06
2023-02-11T04:43:31.852Z,102348.28
2023-02-11T04:46:01.464Z,102351.75
2023-02-11T04:48:31.257Z,102345.53
2023-02-11T04:51:00.412Z,102354.63
2023-02-11T04:53:30.146Z,102352.81
2023-02-11T04:56:01.081Z,102363.53
2023-02-11T04:58:32.148Z,102361.63
2023-02-11T05:01:12.478Z,102359.78
2023-02-11T05:03:41.102Z,102370.69
2023-02-11T05:06:11.507Z,102380.28
2023-02-11T05:08:41.768Z,102348.50
2023-02-11T05:11:16.741Z,102352.94
2023-02-11T05:13:44.875Z,102347.59
2023-02-11T05:16:13.785Z,102334.41
2023-02-11T05:18:42.993Z,102342.31
2023-02-11T05:21:13.010Z,102335.34
2023-02-11T05:23:43.282Z,102346.78
2023-02-11T05:26:12.181Z,102352.16
2023-02-11T05:28:40.678Z,102359.13
2023-02-11T05:31:09.363Z,102371.53
2023-02-11T05:33:37.604Z,102367.22
2023-02-11T05:36:08.357Z,102353.88
2023-02-11T05:38:36.912Z,102348.47
2023-02-11T05:41:07.460Z,102335.88
2023-02-11T05:43:36.784Z,102346.88
2023-02-11T05:46:06.143Z,102353.94
2023-02-11T05:48:34.010Z,102351.25
2023-02-11T05:51:02.107Z,102352.06
2023-02-11T05:53:30.358Z,102348.38
2023-02-11T05:55:58.573Z,102340.19
2023-02-11T05:58:28.606Z,102337.88
2023-02-11T06:00:57.495Z,102340.56
2023-02-11T06:03:25.482Z,102337.13
2023-02-11T06:05:53.682Z,102329.91
2023-02-11T06:08:21.742Z,102340.63
2023-02-11T06:10:50.654Z,102347.56
2023-02-11T06:13:19.738Z,102336.75
2023-02-11T06:15:57.140Z,102334.28
2023-02-11T06:18:25.472Z,102344.22
2023-02-11T06:20:53.582Z,102345.94
2023-02-11T06:23:21.804Z,102352.16
2023-02-11T06:25:50.587Z,102352.16
2023-02-11T06:28:18.859Z,102355.56
2023-02-11T06:30:50.161Z,102349.44
2023-02-11T06:33:18.649Z,102344.13
2023-02-11T06:35:46.799Z,102344.22
2023-02-11T06:38:15.094Z,102356.53
2023-02-11T06:40:48.856Z,102358.47
2023-02-11T06:43:17.490Z,102347.78
2023-02-11T06:45:45.710Z,102352.25
2023-02-11T06:48:15.588Z,102355.72
2023-02-11T06:50:43.994Z,102353.78
2023-02-11T06:53:12.057Z,102357.44
2023-02-11T06:55:40.441Z,102354.88
2023-02-11T06:58:13.285Z,102354.72
2023-02-11T07:00:42.206Z,102350.19
2023-02-11T07:03:11.378Z,102364.44
2023-02-11T07:05:44.606Z,102360.00
2023-02-11T07:08:13.596Z,102356.50
2023-02-11T07:10:41.847Z,102360.97
2023-02-11T07:13:10.434Z,102365.22
2023-02-11T07:15:39.183Z,102366.19
2023-02-11T07:18:07.502Z,102369.78
2023-02-11T07:20:36.057Z,102372.50
2023-02-11T07:23:06.478Z,102392.00
2023-02-11T07:25:35.354Z,102379.56
2023-02-11T07:28:04.220Z,102369.00
2023-02-11T07:30:32.359Z,102379.50
2023-02-11T07:33:00.587Z,102377.00
2023-02-11T07:35:28.903Z,102380.53
2023-02-11T07:37:57.308Z,102377.00
2023-02-11T07:40:26.905Z,102378.72
2023-02-11T07:42:54.999Z,102374.41
2023-02-11T07:45:25.034Z,102385.75
2023-02-11T07:47:53.233Z,102376.09
2023-02-11T07:54:03.836Z,102397.50
2023-02-11T08:45:55.600Z,102416.06
2023-02-11T08:48:29.717Z,102413.28
2023-02-11T08:51:06.451Z,102411.63
2023-02-11T08:53:35.660Z,102401.09
2023-02-11T08:56:04.473Z,102413.34
2023-02-11T08:58:32.544Z,102409.84
2023-02-11T09:04:19.128Z,102422.38
2023-02-11T09:09:45.395Z,102420.53
2023-02-11T09:12:14.396Z,102430.50
2023-02-11T09:14:49.926Z,102434.75
2023-02-11T09:17:19.534Z,102427.72
2023-02-11T09:19:47.542Z,102428.66
2023-02-11T09:22:15.790Z,102431.31
2023-02-11T09:24:44.057Z,102431.34
2023-02-11T09:27:12.036Z,102432.88
2023-02-11T09:29:40.511Z,102431.06
2023-02-11T09:32:10.057Z,102440.13
2023-02-11T09:34:41.516Z,102431.72
2023-02-11T09:37:10.345Z,102455.75
2023-02-11T09:39:38.329Z,102456.06
2023-02-11T09:42:40.544Z,102459.44
2023-02-11T09:45:17.489Z,102461.47
2023-02-11T09:47:51.545Z,102459.69
2023-02-11T09:50:25.399Z,102464.72
2023-02-11T09:52:58.543Z,102472.78
2023-02-11T09:55:29.171Z,102478.47
2023-02-11T09:58:26.283Z,102482.28
2023-02-11T10:01:04.340Z,102498.56
2023-02-11T10:03:55.159Z,102509.38
2023-02-11T10:06:41.661Z,102503.84
2023-02-11T10:09:33.126Z,102495.00
2023-02-11T10:12:17.649Z,102501.25
2023-02-11T10:15:01.320Z,102502.13
2023-02-11T10:17:36.972Z,102510.25
2023-02-11T10:20:18.577Z,102509.28
2023-02-11T10:22:53.760Z,102508.47
2023-02-11T10:25:25.036Z,102513.72
2023-02-11T10:27:56.301Z,102511.97
2023-02-11T10:30:30.406Z,102508.41
2023-02-11T10:33:04.251Z,102498.66
2023-02-11T10:35:33.563Z,102492.44
2023-02-11T10:38:02.925Z,102501.34
2023-02-11T10:40:32.557Z,102499.53
2023-02-11T10:43:05.242Z,102511.16
2023-02-11T10:45:36.896Z,102508.41
2023-02-11T10:48:07.147Z,102506.78
2023-02-11T10:50:37.136Z,102507.69
2023-02-11T10:53:21.215Z,102499.88
2023-02-11T10:55:53.441Z,102510.78
2023-02-11T10:58:27.122Z,102507.34
2023-02-11T11:00:57.813Z,102509.16
2023-02-11T11:03:28.349Z,102513.59
2023-02-11T11:05:59.723Z,102503.84
2023-02-11T11:08:43.023Z,102500.47
2023-02-11T11:11:13.314Z,102504.03
2023-02-11T11:13:43.454Z,102512.91
2023-02-11T11:16:21.588Z,102488.50
2023-02-11T11:18:51.183Z,102505.75
2023-02-11T11:21:22.650Z,102490.09
2023-02-11T11:23:58.298Z,102506.63
2023-02-11T11:26:28.705Z,102499.53
2023-02-11T11:29:04.110Z,102513.72
2023-02-11T11:31:36.847Z,102488.66
2023-02-11T11:34:21.814Z,102502.19
2023-02-11T11:36:51.563Z,102499.41
2023-02-11T11:39:25.294Z,102507.16
2023-02-11T11:41:57.012Z,102502.13
2023-02-11T11:44:33.684Z,102514.66
2023-02-11T11:47:44.329Z,102521.69
2023-02-11T11:50:31.846Z,102497.78
2023-02-11T11:53:05.718Z,102507.50
2023-02-11T11:55:41.657Z,102499.47
2023-02-11T11:58:16.517Z,102496.97
2023-02-11T12:00:54.516Z,102487.13
2023-02-11T12:04:02.542Z,102473.00
2023-02-11T12:06:41.458Z,102476.00
2023-02-11T12:09:21.377Z,102479.97
2023-02-11T12:12:13.554Z,102480.94
2023-02-11T12:14:50.123Z,102472.94
2023-02-11T12:17:37.365Z,102473.84
2023-02-11T12:20:26.209Z,102460.50
2023-02-11T12:23:12.550Z,102469.28
2023-02-11T12:25:47.919Z,102470.28
2023-02-11T12:28:34.182Z,102472.09
2023-02-11T12:31:21.404Z,102467.59
2023-02-11T12:34:03.285Z,102473.81
2023-02-11T12:36:45.240Z,102483.47
2023-02-11T12:39:25.156Z,102486.16
2023-02-11T12:42:32.668Z,102491.63
2023-02-11T12:45:21.004Z,102494.97
2023-02-11T12:48:01.411Z,102498.59
2023-02-11T12:50:41.526Z,102496.97
2023-02-11T12:53:30.324Z,102482.69
2023-02-11T12:56:05.057Z,102498.78
2023-02-11T12:58:44.976Z,102503.97
2023-02-11T13:01:22.810Z,102488.97
2023-02-11T13:03:56.210Z,102485.41
2023-02-11T13:06:31.094Z,102480.09
2023-02-11T13:09:03.830Z,102470.28
2023-02-11T13:11:40.006Z,102476.56
2023-02-11T13:14:15.194Z,102488.88
2023-02-11T13:16:47.529Z,102480.97
2023-02-11T13:19:23.071Z,102488.09
2023-02-11T13:22:16.064Z,102485.97
2023-02-11T13:24:49.587Z,102480.09
2023-02-11T13:27:31.186Z,102481.00
2023-02-11T13:30:27.416Z,102489.78
2023-02-11T13:33:43.272Z,102497.91
2023-02-11T13:36:20.786Z,102491.72
2023-02-11T13:39:01.202Z,102501.47
2023-02-11T13:41:32.623Z,102495.25
2023-02-11T13:44:23.101Z,102498.84
2023-02-11T13:47:03.362Z,102498.72
2023-02-11T13:49:37.021Z,102493.56
2023-02-11T13:52:07.501Z,102494.28
2023-02-11T13:54:39.195Z,102499.75
2023-02-11T13:57:31.535Z,102498.91
2023-02-11T14:00:02.110Z,102505.06
2023-02-11T14:02:50.888Z,102505.91
2023-02-11T14:05:47.644Z,102507.69
2023-02-11T14:08:43.684Z,102515.72
2023-02-11T14:11:46.956Z,102512.09
2023-02-11T14:14:26.893Z,102512.03
2023-02-11T14:17:31.456Z,102502.28
2023-02-11T14:20:02.299Z,102508.56
2023-02-11T14:22:42.234Z,102495.25
2023-02-11T14:25:21.252Z,102497.91
2023-02-11T14:27:55.323Z,102495.25
2023-02-11T14:30:46.936Z,102489.88
2023-02-11T14:33:42.090Z,102492.50
2023-02-11T14:36:24.068Z,102508.59
2023-02-11T14:39:07.049Z,102477.91
2023-02-11T14:41:41.920Z,102500.19
2023-02-11T14:44:18.034Z,102496.00
2023-02-11T14:46:47.238Z,102511.16
2023-02-11T14:49:25.174Z,102509.34
2023-02-11T14:51:57.675Z,102503.16
2023-02-11T14:54:29.230Z,102523.63
2023-02-11T14:57:16.019Z,102503.09
2023-02-11T14:59:58.953Z,102511.22
2023-02-11T15:02:33.351Z,102518.28
2023-02-11T15:05:23.660Z,102516.50
2023-02-11T15:07:56.288Z,102521.88
2023-02-11T15:10:31.777Z,102536.03
2023-02-11T15:13:02.041Z,102532.38
2023-02-11T15:15:31.466Z,102553.78
2023-02-11T15:18:02.368Z,102555.56
2023-02-11T15:20:33.516Z,102547.53
2023-02-11T15:23:03.807Z,102559.88
2023-02-11T15:25:34.336Z,102564.44
2023-02-11T15:28:02.586Z,102576.84
2023-02-11T15:30:34.110Z,102573.28
2023-02-11T15:33:05.550Z,102572.41
2023-02-11T15:35:36.535Z,102577.72
2023-02-11T15:38:05.519Z,102567.91
2023-02-11T15:40:36.682Z,102566.06
2023-02-11T15:43:06.495Z,102564.31
2023-02-11T15:45:38.001Z,102564.31
2023-02-11T15:48:13.971Z,102582.09
2023-02-11T15:50:43.612Z,102570.53
2023-02-11T15:53:27.034Z,102577.59
2023-02-11T15:56:04.409Z,102579.34
2023-02-11T15:58:37.824Z,102574.06
2023-02-11T16:01:06.787Z,102566.94
2023-02-11T16:03:35.004Z,102572.34
2023-02-11T16:06:20.986Z,102568.81
2023-02-11T16:09:02.775Z,102551.75
2023-02-11T16:11:34.228Z,102567.91
2023-02-11T16:14:06.572Z,102568.75
2023-02-11T16:16:36.487Z,102557.22
2023-02-11T16:19:06.486Z,102550.94
2023-02-11T16:21:38.879Z,102545.63
2023-02-11T16:24:08.871Z,102548.22
2023-02-11T16:26:43.039Z,102558.09
2023-02-11T16:29:14.397Z,102564.28
2023-02-11T16:31:44.795Z,102562.47
2023-02-11T16:34:15.021Z,102556.31
2023-02-11T16:36:43.196Z,102568.75
2023-02-11T16:39:11.739Z,102560.69
2023-02-11T16:41:41.006Z,102576.56
2023-02-11T16:44:09.076Z,102573.09
2023-02-11T16:46:38.348Z,102553.66
2023-02-11T16:49:11.338Z,102552.38
2023-02-11T16:51:41.298Z,102561.56
2023-02-11T16:54:14.515Z,102577.66
2023-02-11T16:56:44.254Z,102585.56
2023-02-11T16:59:12.329Z,102591.75
2023-02-11T17:01:41.615Z,102585.50
2023-02-11T17:04:15.701Z,102600.69
2023-02-11T17:06:43.515Z,102594.41
2023-02-11T17:09:17.250Z,102589.09
2023-02-11T17:11:46.618Z,102597.13
2023-02-11T17:14:14.396Z,102604.22
2023-02-11T17:16:42.754Z,102607.81
2023-02-11T17:19:13.490Z,102621.94
2023-02-11T17:21:42.618Z,102613.97
2023-02-11T17:24:11.089Z,102612.19
2023-02-11T17:26:39.583Z,102610.47
2023-02-11T17:29:10.304Z,102612.19
2023-02-11T17:31:38.431Z,102612.97
2023-02-11T17:34:06.458Z,102619.09
2023-02-11T17:36:34.915Z,102631.59
2023-02-11T17:39:04.405Z,102631.63
2023-02-11T17:41:33.746Z,102635.09
2023-02-11T17:44:02.487Z,102645.88
2023-02-11T17:46:32.302Z,102636.66
2023-02-11T17:49:01.847Z,102637.75
2023-02-11T17:51:31.828Z,102638.69
2023-02-11T17:54:01.914Z,102639.53
2023-02-11T17:56:32.809Z,102651.16
2023-02-11T17:59:02.311Z,102654.78
2023-02-11T18:01:32.993Z,102653.59
2023-02-11T18:04:01.519Z,102654.72
2023-02-11T18:06:34.128Z,102662.41
2023-02-11T18:09:04.146Z,102659.72
2023-02-11T18:11:33.877Z,102674.16
2023-02-11T18:14:02.215Z,102678.66
2023-02-11T18:16:36.494Z,102676.78
2023-02-11T18:19:10.124Z,102674.84
2023-02-11T18:21:39.188Z,102678.66
2023-02-11T18:24:08.253Z,102684.81
2023-02-11T18:26:37.691Z,102675.00
2023-02-11T18:29:08.316Z,102681.25
2023-02-11T18:31:43.614Z,102686.59
2023-02-11T18:34:16.839Z,102699.94
2023-02-11T18:36:46.343Z,102700.88
2023-02-11T18:39:18.089Z,102703.47
2023-02-11T18:41:46.872Z,102702.59
2023-02-11T18:44:33.987Z,102688.44
2023-02-11T18:47:05.569Z,102701.59
2023-02-11T18:49:36.177Z,102713.34
2023-02-11T18:52:04.531Z,102713.22
2023-02-11T18:54:33.553Z,102704.03
2023-02-11T18:57:04.488Z,102697.31
2023-02-11T18:59:32.809Z,102697.19
2023-02-11T19:02:01.388Z,102691.00
2023-02-11T19:04:31.600Z,102663.88
2023-02-11T19:07:04.480Z,102673.22
2023-02-11T19:09:32.659Z,102685.69
2023-02-11T19:12:02.244Z,102682.09
2023-02-11T19:14:35.032Z,102693.72
2023-02-11T19:17:08.487Z,102702.50
2023-02-11T19:19:46.726Z,102707.91
2023-02-11T19:22:19.848Z,102718.59
2023-02-11T19:24:49.839Z,102714.97
2023-02-11T19:27:20.198Z,102734.50
2023-02-11T19:29:55.521Z,102732.72
2023-02-11T19:32:23.867Z,102710.50
2023-02-11T19:34:58.681Z,102715.91
2023-02-11T19:37:32.274Z,102705.47
2023-02-11T19:40:01.826Z,102730.91
2023-02-11T19:42:32.979Z,102730.09
2023-02-11T19:45:02.163Z,102730.81
2023-02-11T19:47:44.713Z,102730.84
2023-02-11T19:50:15.558Z,102737.09
2023-02-11T19:52:50.245Z,102736.13
2023-02-11T19:55:18.425Z,102754.06
2023-02-11T19:57:46.414Z,102741.53
2023-02-11T20:00:16.442Z,102745.06
2023-02-11T20:02:44.531Z,102756.59
2023-02-11T20:05:14.088Z,102749.56
2023-02-11T20:07:42.155Z,102741.53
2023-02-11T20:10:22.054Z,102745.03
2023-02-11T20:12:57.651Z,102738.88
2023-02-11T20:15:53.030Z,102740.66
2023-02-11T20:18:34.121Z,102739.66
2023-02-11T20:21:23.011Z,102745.91
2023-02-11T20:24:04.616Z,102753.81
2023-02-11T20:29:27.061Z,102744.91
2023-02-11T20:32:03.902Z,102738.47
2023-02-11T20:34:39.255Z,102738.81
2023-02-11T20:37:14.667Z,102724.53
2023-02-11T20:39:51.521Z,102727.22
2023-02-11T20:42:21.446Z,102726.22
2023-02-11T20:45:03.022Z,102716.56
2023-02-11T20:47:47.482Z,102704.91
2023-02-11T20:50:21.799Z,102702.22
2023-02-11T20:52:58.477Z,102703.88
2023-02-11T20:55:34.806Z,102707.38
2023-02-11T20:58:20.899Z,102712.94
2023-02-11T21:00:53.397Z,102714.50
2023-02-11T21:03:27.055Z,102722.13
2023-02-11T21:08:51.521Z,102714.53
2023-02-11T21:11:27.343Z,102720.72
2023-02-11T21:14:10.383Z,102717.75
2023-02-11T21:16:45.073Z,102725.19
2023-02-11T21:19:24.150Z,102729.72
2023-02-11T21:22:08.714Z,102736.78
2023-02-11T21:27:35.297Z,102739.44
2023-02-11T21:30:17.596Z,102750.13
2023-02-11T21:32:52.614Z,102751.91
2023-02-11T21:35:31.547Z,102747.25
2023-02-11T21:41:10.687Z,102742.13
2023-02-11T21:43:46.010Z,102748.13
2023-02-11T21:49:14.714Z,102754.94
2023-02-11T21:54:46.302Z,102740.53
2023-02-11T22:00:22.685Z,102762.53
2023-02-11T22:02:54.504Z,102771.53
2023-02-11T22:05:41.896Z,102773.06
2023-02-11T22:08:17.499Z,102767.84
2023-02-11T22:11:11.015Z,102779.41
2023-02-11T22:14:00.425Z,102780.06
2023-02-11T22:16:48.375Z,102775.53
2023-02-11T22:19:17.219Z,102784.53
2023-02-11T22:21:45.198Z,102789.00
2023-02-11T22:24:13.448Z,102798.78
2023-02-11T22:26:44.732Z,102799.72
2023-02-11T22:29:13.125Z,102805.00
2023-02-11T22:31:43.145Z,102786.22
2023-02-11T22:34:11.068Z,102795.25
2023-02-11T22:36:41.207Z,102810.34
2023-02-11T22:39:11.933Z,102810.16
2023-02-11T22:41:41.320Z,102807.47
2023-02-11T22:44:09.954Z,102818.44
2023-02-11T22:46:37.901Z,102806.63
2023-02-11T22:49:08.074Z,102810.13
2023-02-11T22:51:36.081Z,102819.03
2023-02-11T22:54:06.388Z,102812.88
2023-02-11T22:56:36.206Z,102825.28
2023-02-11T22:59:06.489Z,102834.25
2023-02-11T23:01:34.946Z,102845.94
2023-02-11T23:04:05.331Z,102841.72
2023-02-11T23:06:35.074Z,102842.09
2023-02-11T23:09:04.941Z,102846.66
2023-02-11T23:11:33.451Z,102847.59
2023-02-11T23:14:02.860Z,102851.03
2023-02-11T23:16:33.386Z,102859.84
2023-02-11T23:19:04.279Z,102849.19
2023-02-11T23:21:37.281Z,102847.28
2023-02-11T23:24:10.370Z,102851.88
2023-02-11T23:26:39.788Z,102857.88
2023-02-11T23:29:09.023Z,102850.88
2023-02-11T23:31:39.988Z,102869.59
2023-02-11T23:34:08.827Z,102863.41
2023-02-11T23:36:39.157Z,102879.34
2023-02-11T23:39:07.517Z,102876.81
2023-02-11T23:41:35.431Z,102872.28
2023-02-11T23:44:03.275Z,102878.97
2023-02-11T23:46:31.355Z,102886.28
2023-02-11T23:48:59.239Z,102892.91
2023-02-11T23:51:27.157Z,102902.53
2023-02-11T23:53:57.086Z,102894.47
2023-02-11T23:56:27.345Z,102902.41
2023-02-11T23:58:57.792Z,102896.97
